Terminal Aerodrome Forecast
Issued by NWS Sioux Falls, SD

Home | Current Version | Previous Version | Graphics & Text | Print | Product List | Glossary On
Versions: 1 2 3 4 5 6 7 8 9 10 11 12 13 14
000
FTUS43 KFSD 291726
TAFSUX
TAF
KSUX 291726Z 2918/3018 26008KT P6SM SKC
     FM300000 VRB04KT P6SM SCT150
     FM300800 10006KT P6SM BKN120
      TEMPO 3008/3011 -TSRA BKN080CB
     FM301500 16013KT P6SM BKN100=

USA.gov is the U.S. government's official web portal to all federal, state and local government web resources and services.